createdAt,value
2023-03-16T00:02:18.934Z,0.57
2023-03-16T00:06:19.006Z,0.57
2023-03-16T00:10:19.224Z,0.58
2023-03-16T00:14:19.314Z,0.58
2023-03-16T00:18:19.479Z,0.59
2023-03-16T00:22:19.612Z,0.59
2023-03-16T00:26:19.788Z,0.60
2023-03-16T00:30:19.955Z,0.59
2023-03-16T00:34:20.130Z,0.61
2023-03-16T00:38:20.209Z,0.61
2023-03-16T00:42:20.338Z,0.60
2023-03-16T00:46:21.071Z,0.59
2023-03-16T00:50:20.934Z,0.60
2023-03-16T00:54:20.756Z,0.59
2023-03-16T00:58:20.916Z,0.60
2023-03-16T01:02:21.028Z,0.60
2023-03-16T01:06:21.246Z,0.60
2023-03-16T01:10:21.935Z,0.61
2023-03-16T01:14:21.598Z,0.60
2023-03-16T01:18:21.778Z,0.61
2023-03-16T01:22:21.954Z,0.60
2023-03-16T01:26:22.190Z,0.59
2023-03-16T01:30:22.398Z,0.60
2023-03-16T01:34:22.607Z,0.61
2023-03-16T01:38:22.753Z,0.60
2023-03-16T01:42:23.011Z,0.62
2023-03-16T01:46:23.192Z,0.60
2023-03-16T01:50:23.342Z,0.61
2023-03-16T01:54:23.574Z,0.61
2023-03-16T01:58:23.754Z,0.59
2023-03-16T02:02:24.020Z,0.60
2023-03-16T02:06:24.095Z,0.61
2023-03-16T02:10:24.312Z,0.60
2023-03-16T02:14:24.450Z,0.59
2023-03-16T02:18:24.667Z,0.59
2023-03-16T02:22:24.890Z,0.59
2023-03-16T02:26:25.077Z,0.58
2023-03-16T02:30:25.261Z,0.60
2023-03-16T02:34:25.434Z,0.59
2023-03-16T02:38:25.611Z,0.59
2023-03-16T02:42:25.863Z,0.59
2023-03-16T02:46:26.018Z,0.59
2023-03-16T02:50:26.354Z,0.59
2023-03-16T02:54:26.415Z,0.59
2023-03-16T02:58:26.603Z,0.59
2023-03-16T03:02:26.845Z,0.59
2023-03-16T03:06:26.952Z,0.58
2023-03-16T03:10:27.456Z,0.58
2023-03-16T03:14:30.069Z,0.59
2023-03-16T03:18:27.482Z,0.59
2023-03-16T03:22:27.346Z,0.60
2023-03-16T03:26:27.254Z,0.59
2023-03-16T03:30:27.509Z,0.57
2023-03-16T03:34:27.175Z,0.59
2023-03-16T03:38:27.138Z,0.59
2023-03-16T03:42:27.113Z,0.58
2023-03-16T03:46:27.259Z,0.59
2023-03-16T03:50:27.287Z,0.60
2023-03-16T03:54:27.029Z,0.60
2023-03-16T03:58:27.052Z,0.60
2023-03-16T04:02:27.643Z,0.61
2023-03-16T04:06:27.349Z,0.61
2023-03-16T04:10:27.793Z,0.61
2023-03-16T04:14:27.577Z,0.60
2023-03-16T04:18:27.620Z,0.61
2023-03-16T04:22:27.852Z,0.61
2023-03-16T04:26:27.933Z,0.61
2023-03-16T04:30:28.309Z,0.62
2023-03-16T04:34:28.181Z,0.61
2023-03-16T04:38:28.331Z,0.61
2023-03-16T04:42:28.476Z,0.62
2023-03-16T04:46:29.724Z,0.61
2023-03-16T04:50:28.977Z,0.61
2023-03-16T04:54:28.711Z,0.61
2023-03-16T04:58:28.749Z,0.60
2023-03-16T05:02:28.843Z,0.61
2023-03-16T05:06:28.986Z,0.60
2023-03-16T05:10:29.389Z,0.60
2023-03-16T05:14:29.070Z,0.61
2023-03-16T05:18:29.145Z,0.60
2023-03-16T05:22:29.584Z,0.60
2023-03-16T05:26:29.195Z,0.60
2023-03-16T05:30:29.924Z,0.60
2023-03-16T05:34:29.541Z,0.60
2023-03-16T05:38:29.325Z,0.60
2023-03-16T05:42:29.301Z,0.59
2023-03-16T05:46:29.404Z,0.59
2023-03-16T05:50:29.791Z,0.60
2023-03-16T05:54:30.085Z,0.61
2023-03-16T05:58:29.480Z,0.66
2023-03-16T06:02:29.711Z,0.69
2023-03-16T06:06:29.736Z,0.70
2023-03-16T06:10:30.332Z,0.73
2023-03-16T06:14:29.788Z,0.72
2023-03-16T06:18:30.084Z,0.71
2023-03-16T06:22:30.033Z,0.69
2023-03-16T06:26:30.376Z,0.69
2023-03-16T06:30:31.127Z,0.69
2023-03-16T06:34:30.740Z,0.61
2023-03-16T06:38:30.432Z,0.63
2023-03-16T06:42:30.414Z,0.58
2023-03-16T06:46:30.516Z,0.57
2023-03-16T06:50:30.465Z,0.51
2023-03-16T06:54:32.088Z,0.50
2023-03-16T06:58:30.606Z,0.51
2023-03-16T07:02:31.110Z,0.51
2023-03-16T07:06:30.388Z,0.95
2023-03-16T07:10:30.731Z,1.47
2023-03-16T07:14:30.664Z,0.99
2023-03-16T07:18:30.666Z,0.64
2023-03-16T07:22:30.763Z,0.55
2023-03-16T07:26:30.989Z,0.54
2023-03-16T07:30:31.034Z,0.52
2023-03-16T07:34:32.112Z,0.50
2023-03-16T07:38:33.692Z,0.58
2023-03-16T07:42:31.393Z,0.59
2023-03-16T07:46:31.409Z,0.61
2023-03-16T07:50:31.524Z,0.64
2023-03-16T07:54:32.741Z,0.65
2023-03-16T07:58:31.332Z,0.68
2023-03-16T08:02:31.323Z,0.68
2023-03-16T08:06:31.196Z,0.68
2023-03-16T08:10:31.578Z,0.70
2023-03-16T08:14:31.289Z,0.71
2023-03-16T08:18:31.233Z,0.72
2023-03-16T08:22:31.132Z,0.70
2023-03-16T08:26:31.636Z,0.70
2023-03-16T08:30:32.056Z,0.72
2023-03-16T08:34:31.093Z,0.52
2023-03-16T08:38:31.196Z,0.51
2023-03-16T08:42:30.968Z,0.57
2023-03-16T08:46:31.816Z,0.56
2023-03-16T08:50:31.542Z,0.58
2023-03-16T08:54:31.241Z,0.58
2023-03-16T08:58:31.030Z,0.60
2023-03-16T09:02:30.823Z,0.59
2023-03-16T09:06:31.412Z,0.56
2023-03-16T09:10:32.141Z,0.56
2023-03-16T09:14:32.177Z,0.58
2023-03-16T09:18:32.154Z,0.57
2023-03-16T09:22:32.035Z,0.53
2023-03-16T09:26:30.826Z,0.55
2023-03-16T09:30:31.438Z,0.57
2023-03-16T09:34:31.546Z,0.54
2023-03-16T09:38:31.003Z,0.60
2023-03-16T09:42:31.008Z,0.60
2023-03-16T09:46:31.009Z,0.58
2023-03-16T09:50:47.299Z,0.60
2023-03-16T09:54:31.914Z,0.63
2023-03-16T09:58:30.878Z,0.77
2023-03-16T10:02:30.745Z,0.81
2023-03-16T10:06:30.757Z,0.76
2023-03-16T10:10:30.832Z,0.79
2023-03-16T10:14:31.177Z,0.74
2023-03-16T10:18:30.632Z,0.73
2023-03-16T10:22:30.752Z,0.78
2023-03-16T10:26:30.608Z,0.89
2023-03-16T10:30:31.202Z,0.77
2023-03-16T10:34:30.754Z,0.78
2023-03-16T10:38:30.960Z,0.71
2023-03-16T10:42:32.176Z,0.79
2023-03-16T10:46:31.303Z,0.73
2023-03-16T10:50:31.543Z,0.78
2023-03-16T10:54:31.436Z,1.20
2023-03-16T10:58:31.600Z,1.36
2023-03-16T11:02:31.680Z,1.43
2023-03-16T11:06:31.774Z,1.37
2023-03-16T11:10:33.170Z,1.38
2023-03-16T11:14:31.741Z,1.36
2023-03-16T11:18:31.975Z,1.40
2023-03-16T11:22:31.830Z,1.39
2023-03-16T11:26:32.346Z,1.39
2023-03-16T11:30:32.095Z,1.49
2023-03-16T11:34:32.107Z,1.35
2023-03-16T11:38:32.059Z,1.44
2023-03-16T11:42:32.040Z,1.86
2023-03-16T11:46:32.161Z,1.82
2023-03-16T11:50:32.177Z,1.80
2023-03-16T11:54:32.044Z,1.77
2023-03-16T11:58:32.129Z,1.68
2023-03-16T12:02:32.353Z,1.67
2023-03-16T12:06:31.859Z,1.65
2023-03-16T12:10:31.817Z,1.61
2023-03-16T12:14:31.807Z,1.55
2023-03-16T12:18:31.739Z,1.58
2023-03-16T12:22:31.706Z,1.57
2023-03-16T12:26:31.733Z,1.51
2023-03-16T12:30:31.653Z,1.48
2023-03-16T12:34:31.776Z,1.49
2023-03-16T12:38:31.594Z,1.54
2023-03-16T12:42:31.512Z,1.57
2023-03-16T12:46:31.536Z,1.58
2023-03-16T12:50:31.449Z,1.52
2023-03-16T12:54:31.534Z,1.51
2023-03-16T12:58:31.509Z,1.46
2023-03-16T13:02:31.543Z,1.46
2023-03-16T13:06:31.433Z,1.42
2023-03-16T13:10:31.422Z,1.37
2023-03-16T13:14:31.415Z,1.33
2023-03-16T13:18:31.328Z,1.34
2023-03-16T13:22:31.316Z,1.25
2023-03-16T13:26:31.273Z,1.23
2023-03-16T13:30:31.569Z,1.23
2023-03-16T13:34:31.166Z,1.27
2023-03-16T13:38:31.207Z,1.14
2023-03-16T13:42:31.420Z,1.10
2023-03-16T13:46:31.580Z,1.22
2023-03-16T13:50:31.768Z,1.12
2023-03-16T13:54:31.825Z,1.10
2023-03-16T13:58:35.199Z,1.04
2023-03-16T14:02:31.945Z,1.07
2023-03-16T14:06:31.904Z,1.07
2023-03-16T14:10:31.816Z,0.98
2023-03-16T14:14:31.786Z,0.96
2023-03-16T14:18:31.788Z,0.95
2023-03-16T14:22:31.749Z,0.96
2023-03-16T14:26:31.675Z,0.92
2023-03-16T14:30:31.640Z,0.91
2023-03-16T14:34:31.654Z,0.97
2023-03-16T14:38:31.644Z,0.87
2023-03-16T14:42:31.557Z,0.87
2023-03-16T14:46:31.570Z,0.91
2023-03-16T14:50:31.507Z,0.94
2023-03-16T14:54:31.418Z,0.88
2023-03-16T14:58:31.401Z,0.88
2023-03-16T15:02:31.367Z,0.83
2023-03-16T15:06:31.331Z,0.86
2023-03-16T15:10:31.596Z,0.86
2023-03-16T15:14:31.289Z,0.83
2023-03-16T15:18:31.205Z,0.85
2023-03-16T15:22:31.286Z,0.84
2023-03-16T15:26:31.399Z,0.87
2023-03-16T15:30:31.448Z,0.86
2023-03-16T15:34:31.123Z,0.95
2023-03-16T15:38:31.065Z,0.87
2023-03-16T15:42:31.800Z,0.91
2023-03-16T15:46:31.011Z,1.00
2023-03-16T15:50:30.952Z,1.11
2023-03-16T15:54:30.905Z,1.03
2023-03-16T15:58:30.931Z,1.03
2023-03-16T16:02:30.901Z,0.98
2023-03-16T16:06:31.380Z,0.98
2023-03-16T16:10:31.146Z,1.08
2023-03-16T16:14:30.781Z,1.09
2023-03-16T16:18:30.697Z,1.06
2023-03-16T16:22:30.696Z,1.17
2023-03-16T16:26:45.516Z,1.07
2023-03-16T16:30:31.731Z,1.07
2023-03-16T16:34:30.673Z,1.08
2023-03-16T16:38:30.647Z,1.00
2023-03-16T16:42:30.644Z,0.98
2023-03-16T16:46:30.588Z,0.99
2023-03-16T16:50:30.596Z,1.01
2023-03-16T16:54:30.599Z,0.99
2023-03-16T16:58:30.694Z,0.98
2023-03-16T17:02:30.754Z,0.97
2023-03-16T17:06:31.337Z,0.94
2023-03-16T17:10:30.850Z,1.01
2023-03-16T17:14:30.935Z,0.93
2023-03-16T17:18:31.065Z,0.92
2023-03-16T17:22:31.078Z,0.90
2023-03-16T17:26:31.195Z,0.96
2023-03-16T17:30:31.331Z,0.92
2023-03-16T17:34:31.397Z,0.81
2023-03-16T17:38:31.577Z,0.82
2023-03-16T17:42:31.664Z,0.83
2023-03-16T17:46:31.892Z,0.83
2023-03-16T17:50:32.031Z,0.81
2023-03-16T17:54:31.998Z,0.80
2023-03-16T17:58:32.116Z,0.81
2023-03-16T18:02:32.235Z,0.77
2023-03-16T18:06:32.403Z,0.77
2023-03-16T18:10:32.647Z,0.78
2023-03-16T18:14:32.663Z,0.77
2023-03-16T18:18:32.835Z,0.75
2023-03-16T18:22:33.035Z,0.74
2023-03-16T18:26:33.091Z,0.73
2023-03-16T18:30:33.268Z,0.72
2023-03-16T18:34:33.396Z,0.72
2023-03-16T18:38:33.526Z,0.74
2023-03-16T18:42:33.690Z,0.71
2023-03-16T18:46:33.900Z,0.74
2023-03-16T18:50:34.008Z,0.76
2023-03-16T18:54:34.133Z,0.68
2023-03-16T18:58:34.303Z,0.69
2023-03-16T19:02:34.479Z,0.68
2023-03-16T19:06:34.658Z,0.68
2023-03-16T19:10:34.829Z,0.67
2023-03-16T19:14:35.006Z,0.66
2023-03-16T19:18:35.130Z,0.68
2023-03-16T19:22:35.413Z,0.66
2023-03-16T19:26:35.540Z,0.64
2023-03-16T19:30:35.718Z,0.64
2023-03-16T19:34:35.885Z,0.63
2023-03-16T19:38:36.065Z,0.62
2023-03-16T19:42:36.338Z,0.63
2023-03-16T19:46:37.391Z,0.62
2023-03-16T19:50:36.760Z,0.60
2023-03-16T19:54:36.884Z,0.60
2023-03-16T19:58:37.117Z,0.58
2023-03-16T20:02:37.350Z,0.58
2023-03-16T20:06:37.538Z,0.58
2023-03-16T20:10:37.799Z,0.58
2023-03-16T20:14:37.969Z,0.58
2023-03-16T20:18:38.188Z,0.56
2023-03-16T20:22:38.423Z,0.57
2023-03-16T20:26:38.393Z,0.57
2023-03-16T20:30:38.348Z,0.57
2023-03-16T20:34:38.344Z,0.56
2023-03-16T20:38:38.256Z,0.54
2023-03-16T20:42:38.239Z,0.54
2023-03-16T20:46:38.443Z,0.55
2023-03-16T20:50:38.171Z,0.54
2023-03-16T20:54:38.157Z,0.51
2023-03-16T20:58:38.235Z,0.52
2023-03-16T21:02:38.144Z,0.52
2023-03-16T21:06:38.120Z,0.51
2023-03-16T21:10:38.132Z,0.51
2023-03-16T21:14:38.064Z,0.51
2023-03-16T21:18:38.040Z,0.50
2023-03-16T21:22:38.012Z,0.52
2023-03-16T21:26:37.923Z,0.52
2023-03-16T21:30:37.896Z,0.50
2023-03-16T21:34:37.867Z,0.50
2023-03-16T21:38:37.840Z,0.51
2023-03-16T21:42:38.020Z,0.51
2023-03-16T21:46:38.153Z,0.51
2023-03-16T21:50:37.960Z,0.51
2023-03-16T21:54:37.887Z,0.51
2023-03-16T21:58:37.901Z,0.51
2023-03-16T22:02:37.953Z,0.52
2023-03-16T22:06:37.754Z,0.51
2023-03-16T22:10:37.722Z,0.51
2023-03-16T22:14:37.707Z,0.51
2023-03-16T22:18:37.736Z,0.51
2023-03-16T22:22:37.750Z,0.51
2023-03-16T22:26:38.032Z,0.52
2023-03-16T22:30:37.587Z,0.51
2023-03-16T22:34:37.562Z,0.51
2023-03-16T22:38:37.537Z,0.50
2023-03-16T22:42:37.507Z,0.51
2023-03-16T22:46:37.445Z,0.51
2023-03-16T22:50:37.411Z,0.51
2023-03-16T22:54:37.383Z,0.51
2023-03-16T22:58:37.396Z,0.52
2023-03-16T23:02:37.368Z,0.50
2023-03-16T23:06:37.333Z,0.50
2023-03-16T23:10:37.282Z,0.51
2023-03-16T23:14:37.251Z,0.54
2023-03-16T23:18:37.225Z,0.51
2023-03-16T23:22:37.194Z,0.51
2023-03-16T23:26:37.166Z,0.51
2023-03-16T23:30:37.174Z,0.51
2023-03-16T23:34:37.138Z,0.51
2023-03-16T23:38:37.082Z,0.51
2023-03-16T23:42:37.156Z,0.52
2023-03-16T23:46:37.080Z,0.51
2023-03-16T23:50:37.050Z,0.53
2023-03-16T23:54:37.037Z,0.54
2023-03-16T23:58:36.975Z,0.54
